Time;durP1;ratioP1;P1;durP2;ratioP2;P2;SDS_P1;SDS_P2;PMS_P1;PMS_P2;Temp;Humidity;BMP_temperature;BMP_pressure;BME280_temperature;BME280_humidity;BME280_pressure;Samples;Min_cycle;Max_cycle;Signal;HPM_P1;HPM_P2
2021/04/11 00:01:42;;;;;;;1999.90;999.90;;;11.80;99.90;;;;;;5052472;28;20202;-69
2021/04/11 00:04:08;;;;;;;1999.90;999.90;;;11.90;99.90;;;;;;5054883;28;20175;-65
2021/04/11 00:06:34;;;;;;;1999.90;999.90;;;12.00;99.90;;;;;;5051778;28;20218;-68
2021/04/11 00:08:59;;;;;;;1999.90;999.90;;;11.90;99.90;;;;;;5052100;28;20398;-67
2021/04/11 00:11:25;;;;;;;1999.90;999.90;;;12.00;99.90;;;;;;5052194;28;20403;-66
2021/04/11 00:13:54;;;;;;;1999.90;999.90;;;12.00;99.90;;;;;;5052271;28;20636;-66
2021/04/11 00:16:21;;;;;;;1999.90;999.90;;;12.00;99.90;;;;;;5051558;28;20421;-67
2021/04/11 00:18:46;;;;;;;1999.90;999.90;;;12.00;99.90;;;;;;5051909;28;20895;-67
2021/04/11 00:21:12;;;;;;;1999.90;999.90;;;11.90;99.90;;;;;;5057946;28;20498;-69
2021/04/11 00:23:38;;;;;;;1999.90;999.90;;;12.00;99.90;;;;;;5054036;28;20167;-67
2021/04/11 00:26:05;;;;;;;1999.90;999.90;;;12.00;99.90;;;;;;5051638;28;20740;-66
2021/04/11 00:28:30;;;;;;;1999.90;999.90;;;12.00;99.90;;;;;;5051912;28;20164;-66
2021/04/11 00:30:56;;;;;;;1999.90;999.90;;;12.00;99.90;;;;;;5053790;28;20409;-67
2021/04/11 00:33:27;;;;;;;1999.90;999.90;;;12.00;99.90;;;;;;5062266;28;20258;-68
2021/04/11 00:36:15;;;;;;;1999.90;999.90;;;12.00;99.90;;;;;;5055695;28;20254;-67
2021/04/11 00:38:41;;;;;;;1999.90;999.90;;;11.90;99.90;;;;;;5056010;28;20504;-67
2021/04/11 00:41:13;;;;;;;1999.90;999.90;;;11.90;99.90;;;;;;5055670;28;21016;-67
2021/04/11 00:43:40;;;;;;;1999.90;999.90;;;11.90;99.90;;;;;;5055921;28;20394;-66
2021/04/11 00:46:18;;;;;;;1999.90;999.90;;;11.90;99.90;;;;;;5058870;28;20421;-68
2021/04/11 00:48:45;;;;;;;1999.90;999.90;;;11.80;99.90;;;;;;5055723;28;20744;-66
2021/04/11 00:51:14;;;;;;;1999.90;999.90;;;11.80;99.90;;;;;;5056238;28;20440;-66
2021/04/11 00:53:40;;;;;;;1999.90;999.90;;;11.70;99.90;;;;;;5055645;28;20758;-67
2021/04/11 00:56:07;;;;;;;1999.90;999.90;;;11.70;99.90;;;;;;5058143;28;20421;-68
2021/04/11 00:58:33;;;;;;;1999.90;999.90;;;11.80;99.90;;;;;;5062941;28;20404;-68
2021/04/11 01:00:59;;;;;;;1999.90;999.90;;;11.80;99.90;;;;;;5055485;28;20442;-68
2021/04/11 01:03:29;;;;;;;1999.90;999.90;;;11.60;99.90;;;;;;5055618;28;20397;-68
2021/04/11 01:05:56;;;;;;;1999.90;999.90;;;11.60;99.90;;;;;;5061066;28;20481;-67
2021/04/11 01:08:24;;;;;;;1999.90;999.90;;;11.80;99.90;;;;;;5057277;28;20394;-69
2021/04/11 01:10:53;;;;;;;1999.90;999.90;;;11.70;99.90;;;;;;5068112;28;20495;-69
2021/04/11 01:13:21;;;;;;;1999.90;999.90;;;11.70;99.90;;;;;;5059382;28;20410;-67
2021/04/11 01:15:48;;;;;;;1999.90;999.90;;;11.70;99.90;;;;;;5055041;28;20402;-68
2021/04/11 01:18:14;;;;;;;1999.90;999.90;;;11.70;99.90;;;;;;5055152;28;20927;-68
2021/04/11 01:20:40;;;;;;;1999.90;999.90;;;11.80;99.90;;;;;;5055060;28;20445;-67
2021/04/11 01:23:30;;;;;;;1999.90;999.90;;;11.60;99.90;;;;;;5055061;28;20405;-68
2021/04/11 01:25:58;;;;;;;1999.90;999.90;;;11.70;99.90;;;;;;5054642;28;20448;-66
2021/04/11 01:28:32;;;;;;;1999.90;999.90;;;11.70;99.90;;;;;;5055008;28;20447;-67
2021/04/11 01:31:05;;;;;;;1999.90;999.90;;;11.70;99.90;;;;;;5060302;28;20492;-67
2021/04/11 01:33:32;;;;;;;1999.90;999.90;;;11.70;99.90;;;;;;5055094;28;20775;-68
2021/04/11 01:36:00;;;;;;;1999.90;999.90;;;11.70;99.90;;;;;;5054367;28;20917;-67
2021/04/11 01:38:27;;;;;;;1999.90;999.90;;;11.70;99.90;;;;;;5054869;28;20413;-66
2021/04/11 01:41:02;;;;;;;1999.90;999.90;;;11.60;99.90;;;;;;5054680;28;20827;-67
2021/04/11 01:43:29;;;;;;;1999.90;999.90;;;11.60;99.90;;;;;;5053479;28;20493;-67
2021/04/11 01:45:55;;;;;;;1999.90;999.90;;;11.60;99.90;;;;;;5054257;28;20740;-68
2021/04/11 01:48:21;;;;;;;1999.90;999.90;;;11.60;99.90;;;;;;5063505;28;20398;-69
2021/04/11 01:50:48;;;;;;;1999.90;999.90;;;11.60;99.90;;;;;;5059267;28;20501;-67
2021/04/11 01:53:15;;;;;;;1999.90;999.90;;;11.60;99.90;;;;;;5054551;28;20438;-67
2021/04/11 01:55:42;;;;;;;1999.90;999.90;;;11.60;99.90;;;;;;5054255;28;20398;-67
2021/04/11 01:58:09;;;;;;;1999.90;999.90;;;11.60;99.90;;;;;;5054348;28;20418;-66
2021/04/11 02:00:37;;;;;;;1999.90;999.90;;;11.70;99.90;;;;;;5054321;28;20457;-68
2021/04/11 02:03:09;;;;;;;1999.90;999.90;;;11.70;99.90;;;;;;5054407;28;20393;-69
2021/04/11 02:05:42;;;;;;;1999.90;999.90;;;11.00;99.90;;;;;;5061274;28;20489;-70
2021/04/11 02:08:15;;;;;;;1999.90;999.90;;;10.10;99.90;;;;;;5057082;28;20948;-68
2021/04/11 02:10:46;;;;;;;1999.90;999.90;;;9.50;99.90;;;;;;5054141;28;20927;-69
2021/04/11 02:13:13;;;;;;;1999.90;999.90;;;9.20;99.90;;;;;;5054223;28;20405;-69
2021/04/11 02:15:45;;;;;;;1999.90;999.90;;;8.90;99.90;;;;;;5053759;28;20413;-69
2021/04/11 02:18:12;;;;;;;1999.90;999.90;;;8.70;99.90;;;;;;5060076;28;20920;-69
2021/04/11 02:20:38;;;;;;;1999.90;999.90;;;8.60;99.90;;;;;;5055398;28;20461;-69
2021/04/11 02:23:06;;;;;;;1999.90;999.90;;;8.50;99.90;;;;;;5053936;28;20403;-69
2021/04/11 02:25:39;;;;;;;1999.90;999.90;;;8.40;99.90;;;;;;5053590;28;20408;-69
2021/04/11 02:28:05;;;;;;;1999.90;999.90;;;8.40;99.90;;;;;;5053826;28;20422;-69
2021/04/11 02:30:31;;;;;;;1999.90;999.90;;;8.30;99.90;;;;;;5053855;28;20412;-69
2021/04/11 02:32:58;;;;;;;1999.90;999.90;;;8.30;99.90;;;;;;5054356;28;20179;-69
2021/04/11 02:35:26;;;;;;;1999.90;999.90;;;8.20;99.90;;;;;;5053474;28;20402;-67
2021/04/11 02:38:00;;;;;;;1999.90;999.90;;;8.20;99.90;;;;;;5052415;28;20449;-69
2021/04/11 02:40:32;;;;;;;1999.90;999.90;;;8.30;99.90;;;;;;5053840;28;20443;-68
2021/04/11 02:43:00;;;;;;;1999.90;999.90;;;8.20;99.90;;;;;;5054847;28;20493;-70
2021/04/11 02:45:30;;;;;;;1999.90;999.90;;;8.10;99.90;;;;;;5053915;28;20417;-68
2021/04/11 02:47:56;;;;;;;1999.90;999.90;;;8.00;99.90;;;;;;5053330;28;20445;-68
2021/04/11 02:50:25;;;;;;;1999.90;999.90;;;7.90;99.90;;;;;;5053283;28;20404;-69
2021/04/11 02:53:00;;;;;;;1999.90;999.90;;;7.70;99.90;;;;;;5053296;28;20776;-69
2021/04/11 02:55:29;;;;;;;1999.90;999.90;;;7.60;99.90;;;;;;5053078;28;20402;-66
2021/04/11 02:57:56;;;;;;;1999.90;999.90;;;7.50;99.90;;;;;;5053033;28;20492;-68
2021/04/11 03:00:24;;;;;;;1999.90;999.90;;;7.40;99.90;;;;;;5053100;28;20433;-67
2021/04/11 03:02:49;;;;;;;1999.90;999.90;;;7.30;99.90;;;;;;5053079;28;20501;-67
2021/04/11 03:05:18;;;;;;;1999.90;999.90;;;7.20;99.90;;;;;;5052750;28;20485;-67
2021/04/11 03:07:47;;;;;;;1999.90;999.90;;;7.10;99.90;;;;;;5055113;28;20187;-69
2021/04/11 03:10:56;;;;;;;1999.90;999.90;;;7.00;99.90;;;;;;5055134;28;20398;-69
2021/04/11 03:13:22;;;;;;;1999.90;999.90;;;6.90;99.90;;;;;;5042156;28;20411;-68
2021/04/11 03:15:49;;;;;;;1999.90;999.90;;;6.90;99.90;;;;;;5052595;28;20494;-67
2021/04/11 03:18:15;;;;;;;1999.90;999.90;;;6.80;99.90;;;;;;5054625;28;20394;-70
2021/04/11 03:20:44;;;;;;;1999.90;999.90;;;6.80;99.90;;;;;;5054194;28;20441;-69
2021/04/11 03:23:11;;;;;;;1999.90;999.90;;;6.80;99.90;;;;;;5057478;28;20934;-69
2021/04/11 03:25:39;;;;;;;1999.90;999.90;;;6.70;99.90;;;;;;5053613;28;20941;-68
2021/04/11 03:28:14;;;;;;;1999.90;999.90;;;6.70;99.90;;;;;;5054827;28;20425;-68
2021/04/11 03:30:40;;;;;;;1999.90;999.90;;;6.70;99.90;;;;;;5052643;28;20409;-68
2021/04/11 03:33:11;;;;;;;1999.90;999.90;;;6.70;99.90;;;;;;5052623;28;20398;-69
2021/04/11 03:35:40;;;;;;;1999.90;999.90;;;6.70;99.90;;;;;;5054007;28;20168;-69
2021/04/11 03:38:08;;;;;;;1999.90;999.90;;;6.70;99.90;;;;;;5052421;28;20798;-68
2021/04/11 03:40:38;;;;;;;1999.90;999.90;;;6.70;99.90;;;;;;5053309;28;20457;-68
2021/04/11 03:43:15;;;;;;;1999.90;999.90;;;6.70;99.90;;;;;;5053808;28;20394;-69
2021/04/11 03:45:41;;;;;;;1999.90;999.90;;;6.70;99.90;;;;;;5054773;28;20402;-67
2021/04/11 03:48:19;;;;;;;1999.90;999.90;;;6.60;99.90;;;;;;5052305;28;20746;-69
2021/04/11 03:50:58;;;;;;;1999.90;999.90;;;6.60;99.90;;;;;;5052371;28;20452;-69
2021/04/11 03:53:32;;;;;;;1999.90;999.90;;;6.60;99.90;;;;;;5052302;28;20492;-68
2021/04/11 03:56:01;;;;;;;1999.90;999.90;;;6.60;99.90;;;;;;5051704;28;20405;-67
2021/04/11 03:58:35;;;;;;;1999.90;999.90;;;6.60;99.90;;;;;;5054238;28;20623;-69
2021/04/11 04:01:12;;;;;;;1999.90;999.90;;;6.60;99.90;;;;;;5052517;28;20826;-69
2021/04/11 04:03:40;;;;;;;1999.90;999.90;;;6.50;99.90;;;;;;5051236;28;20488;-70
2021/04/11 04:06:35;;;;;;;1999.90;999.90;;;6.50;99.90;;;;;;5053011;28;20429;-69
2021/04/11 04:09:05;;;;;;;1999.90;999.90;;;6.40;99.90;;;;;;5043175;28;20418;-68
2021/04/11 04:11:36;;;;;;;1999.90;999.90;;;6.30;99.90;;;;;;5052326;28;20406;-68
2021/04/11 04:14:29;;;;;;;1999.90;999.90;;;6.20;99.90;;;;;;5052020;28;20398;-68
2021/04/11 04:17:19;;;;;;;1999.90;999.90;;;6.20;99.90;;;;;;5051630;28;20812;-69
2021/04/11 04:20:03;;;;;;;1999.90;999.90;;;6.10;99.90;;;;;;5051956;28;20383;-69
2021/04/11 04:22:54;;;;;;;1999.90;999.90;;;6.00;99.90;;;;;;5054750;28;20410;-69
2021/04/11 04:25:34;;;;;;;1999.90;999.90;;;5.90;99.90;;;;;;5053469;28;20437;-69
2021/04/11 04:28:04;;;;;;;1999.90;999.90;;;5.90;99.90;;;;;;5056739;28;20923;-69
2021/04/11 04:30:44;;;;;;;1999.90;999.90;;;5.80;99.90;;;;;;5055917;28;20823;-69
2021/04/11 04:33:48;;;;;;;1999.90;999.90;;;5.70;99.90;;;;;;5055992;28;20456;-69
2021/04/11 04:36:29;;;;;;;1999.90;999.90;;;5.80;99.90;;;;;;5034615;28;20433;-70
2021/04/11 04:39:22;;;;;;;1999.90;999.90;;;5.70;99.90;;;;;;5052682;28;20401;-67
2021/04/11 04:41:54;;;;;;;1999.90;999.90;;;5.60;99.90;;;;;;5051578;28;20453;-68
2021/04/11 04:44:33;;;;;;;1999.90;999.90;;;5.50;99.90;;;;;;5051681;28;20410;-67
2021/04/11 04:47:23;;;;;;;1999.90;999.90;;;5.50;99.90;;;;;;5053365;28;20406;-67
2021/04/11 04:50:01;;;;;;;1999.90;999.90;;;5.40;99.90;;;;;;5056655;28;20942;-69
2021/04/11 04:52:30;;;;;;;1999.90;999.90;;;5.30;99.90;;;;;;5055205;28;20394;-69
2021/04/11 04:55:08;;;;;;;1999.90;999.90;;;5.30;99.90;;;;;;5051342;28;20440;-68
2021/04/11 04:57:37;;;;;;;1999.90;999.90;;;5.20;99.90;;;;;;5053863;28;20520;-68
2021/04/11 05:00:14;;;;;;;1999.90;999.90;;;5.10;99.90;;;;;;5051423;28;20410;-68
2021/04/11 05:02:49;;;;;;;1999.90;999.90;;;5.10;99.90;;;;;;5054383;28;20497;-68
2021/04/11 05:05:17;;;;;;;1999.90;999.90;;;5.00;99.90;;;;;;5051203;28;20432;-68
2021/04/11 05:07:55;;;;;;;1999.90;999.90;;;5.00;99.90;;;;;;5051338;28;20418;-67
2021/04/11 05:10:28;;;;;;;1999.90;999.90;;;5.00;99.90;;;;;;5056710;28;20409;-69
2021/04/11 05:12:57;;;;;;;1999.90;999.90;;;5.00;99.90;;;;;;5052349;28;20488;-69
2021/04/11 05:15:41;;;;;;;1999.90;999.90;;;5.00;99.90;;;;;;5056687;28;20403;-69
2021/04/11 05:18:14;;;;;;;1999.90;999.90;;;5.00;99.90;;;;;;5059337;28;20901;-68
2021/04/11 05:20:45;;;;;;;1999.90;999.90;;;4.90;99.90;;;;;;5054994;28;20500;-67
2021/04/11 05:23:19;;;;;;;1999.90;999.90;;;4.80;99.90;;;;;;5054968;28;20398;-67
2021/04/11 05:26:08;;;;;;;1999.90;999.90;;;4.70;99.90;;;;;;5057564;28;20163;-69
2021/04/11 05:28:58;;;;;;;1999.90;999.90;;;4.70;99.90;;;;;;5056187;28;20920;-67
2021/04/11 05:31:29;;;;;;;1999.90;999.90;;;4.60;99.90;;;;;;5054796;28;20406;-67
2021/04/11 05:33:56;;;;;;;1999.90;999.90;;;4.60;99.90;;;;;;5054813;28;20429;-67
2021/04/11 05:36:55;;;;;;;1999.90;999.90;;;4.60;99.90;;;;;;5054432;28;20766;-67
2021/04/11 05:39:26;;;;;;;1999.90;999.90;;;4.60;99.90;;;;;;5059553;28;20414;-67
2021/04/11 05:42:21;;;;;;;1999.90;999.90;;;4.60;99.90;;;;;;5054580;28;20457;-68
2021/04/11 05:44:49;;;;;;;1999.90;999.90;;;4.70;99.90;;;;;;5017345;28;20416;-67
2021/04/11 05:47:36;;;;;;;1999.90;999.90;;;4.60;99.90;;;;;;5054431;28;20748;-67
2021/04/11 05:50:07;;;;;;;1999.90;999.90;;;4.50;99.90;;;;;;5054576;28;20430;-69
2021/04/11 05:52:47;;;;;;;1999.90;999.90;;;4.40;99.90;;;;;;5058133;28;20422;-69
2021/04/11 05:55:16;;;;;;;1999.90;999.90;;;4.30;99.90;;;;;;5058631;28;20164;-68
2021/04/11 05:57:47;;;;;;;1999.90;999.90;;;4.30;99.90;;;;;;5060696;28;20649;-69
2021/04/11 06:00:15;;;;;;;1999.90;999.90;;;4.30;99.90;;;;;;5058792;28;20172;-69
2021/04/11 06:02:46;;;;;;;1999.90;999.90;;;4.30;99.90;;;;;;5054349;28;20168;-69
2021/04/11 06:05:18;;;;;;;1999.90;999.90;;;4.30;99.90;;;;;;5053963;28;20164;-68
2021/04/11 06:07:54;;;;;;;1999.90;999.90;;;4.30;99.90;;;;;;5059276;28;20176;-69
2021/04/11 06:10:32;;;;;;;1999.90;999.90;;;4.30;99.90;;;;;;5054949;28;20167;-67
2021/04/11 06:13:05;;;;;;;1999.90;999.90;;;4.30;99.90;;;;;;5054119;28;20398;-68
2021/04/11 06:15:35;;;;;;;1999.90;999.90;;;4.30;99.90;;;;;;5053773;28;20536;-69
2021/04/11 06:18:06;;;;;;;1999.90;999.90;;;4.30;99.90;;;;;;5053926;28;20605;-69
2021/04/11 06:20:32;;;;;;;1999.90;999.90;;;4.20;99.90;;;;;;5058463;28;20199;-69
2021/04/11 06:23:25;;;;;;;1999.90;999.90;;;4.20;99.90;;;;;;5063330;28;20192;-68
2021/04/11 06:26:19;;;;;;;1999.90;999.90;;;4.20;99.90;;;;;;5060610;28;20167;-69
2021/04/11 06:29:00;;;;;;;1999.90;999.90;;;4.20;99.90;;;;;;5053038;28;20160;-68
2021/04/11 06:31:30;;;;;;;1999.90;999.90;;;4.10;99.90;;;;;;5060435;28;20957;-70
2021/04/11 06:34:54;;;;;;;1999.90;999.90;;;4.20;99.90;;;;;;5054592;28;20171;-68
2021/04/11 06:37:21;;;;;;;1999.90;999.90;;;4.20;99.90;;;;;;5037073;28;21217;-69
2021/04/11 06:39:49;;;;;;;1999.90;999.90;;;4.30;99.90;;;;;;5060617;28;20413;-69
2021/04/11 06:42:36;;;;;;;1999.90;999.90;;;4.30;99.90;;;;;;5053986;28;20559;-67
2021/04/11 06:45:13;;;;;;;1999.90;999.90;;;4.40;99.90;;;;;;5053247;28;20456;-68
2021/04/11 06:48:00;;;;;;;1999.90;999.90;;;4.40;99.90;;;;;;5055335;28;20237;-68
2021/04/11 06:50:57;;;;;;;1999.90;999.90;;;4.40;99.90;;;;;;5054579;28;20493;-67
2021/04/11 06:53:34;;;;;;;1999.90;999.90;;;4.40;99.90;;;;;;5054934;28;20258;-70
2021/04/11 06:56:06;;;;;;;1999.90;999.90;;;4.30;99.90;;;;;;5053330;28;20557;-69
2021/04/11 06:58:43;;;;;;;1999.90;999.90;;;4.30;99.90;;;;;;5053244;28;20168;-69
2021/04/11 07:01:15;;;;;;;1999.90;999.90;;;4.30;99.90;;;;;;5053074;28;20195;-69
2021/04/11 07:04:09;;;;;;;1999.90;999.90;;;4.30;99.90;;;;;;5053354;28;20168;-69
2021/04/11 07:07:12;;;;;;;1999.90;999.90;;;4.20;99.90;;;;;;5054179;28;20449;-69
2021/04/11 07:09:56;;;;;;;1999.90;999.90;;;4.20;99.90;;;;;;5056556;28;20163;-69
2021/04/11 07:12:46;;;;;;;1999.90;999.90;;;4.20;99.90;;;;;;5052904;28;20163;-69
2021/04/11 07:15:25;;;;;;;1999.90;999.90;;;4.20;99.90;;;;;;5052615;28;20179;-69
2021/04/11 07:18:03;;;;;;;1999.90;999.90;;;4.20;99.90;;;;;;5052824;28;20245;-68
2021/04/11 07:20:43;;;;;;;1999.90;999.90;;;4.20;99.90;;;;;;5052963;28;20568;-69
2021/04/11 07:23:18;;;;;;;1999.90;999.90;;;4.20;99.90;;;;;;5052723;28;20164;-67
2021/04/11 07:26:02;;;;;;;1999.90;999.90;;;4.20;99.90;;;;;;5052429;28;20163;-67
2021/04/11 07:28:51;;;;;;;1999.90;999.90;;;4.20;99.90;;;;;;5054030;28;20655;-70
2021/04/11 07:31:37;;;;;;;1999.90;999.90;;;4.20;99.90;;;;;;5052666;28;20190;-69
2021/04/11 07:34:30;;;;;;;1999.90;999.90;;;4.10;99.90;;;;;;5052554;28;20405;-69
2021/04/11 07:37:06;;;;;;;1999.90;999.90;;;4.10;99.90;;;;;;5052217;28;20192;-68
2021/04/11 07:39:40;;;;;;;1999.90;999.90;;;4.20;99.90;;;;;;5060651;28;20766;-69
2021/04/11 07:42:29;;;;;;;1999.90;999.90;;;4.20;99.90;;;;;;5057757;28;20194;-68
2021/04/11 07:45:25;;;;;;;1999.90;999.90;;;4.20;99.90;;;;;;5052343;28;20172;-69
2021/04/11 07:48:00;;;;;;;1999.90;999.90;;;4.20;99.90;;;;;;5055074;28;20215;-70
2021/04/11 07:50:29;;;;;;;1999.90;999.90;;;4.20;99.90;;;;;;5054353;28;20582;-69
2021/04/11 07:53:06;;;;;;;1999.90;999.90;;;4.20;99.90;;;;;;5052459;28;20774;-69
2021/04/11 07:55:50;;;;;;;1999.90;999.90;;;4.20;99.90;;;;;;5053876;28;20402;-69
2021/04/11 07:58:28;;;;;;;1999.90;999.90;;;4.10;99.90;;;;;;5052147;28;20206;-69
2021/04/11 08:01:08;;;;;;;1999.90;999.90;;;4.20;99.90;;;;;;5052650;28;20457;-70
2021/04/11 08:03:58;;;;;;;1999.90;999.90;;;4.20;99.90;;;;;;5052551;28;20397;-69
2021/04/11 08:06:29;;;;;;;1999.90;999.90;;;4.10;99.90;;;;;;5051688;28;20219;-69
2021/04/11 08:09:16;;;;;;;1999.90;999.90;;;4.10;99.90;;;;;;5052006;28;20156;-69
2021/04/11 08:12:06;;;;;;;1999.90;999.90;;;4.10;99.90;;;;;;5054648;28;20176;-69
2021/04/11 08:14:41;;;;;;;1999.90;999.90;;;4.00;99.90;;;;;;5052151;28;20622;-69
2021/04/11 08:17:22;;;;;;;1999.90;999.90;;;4.10;99.90;;;;;;5051820;28;20193;-69
2021/04/11 08:20:13;;;;;;;1999.90;999.90;;;4.00;99.90;;;;;;5051987;28;20167;-68
2021/04/11 08:23:00;;;;;;;1999.90;999.90;;;4.00;99.90;;;;;;5052132;28;20175;-69
2021/04/11 08:25:39;;;;;;;1999.90;999.90;;;3.90;99.90;;;;;;5053608;28;20164;-69
2021/04/11 08:28:38;;;;;;;1999.90;999.90;;;4.00;99.90;;;;;;5051901;28;20179;-68
2021/04/11 08:31:35;;;;;;;1999.90;999.90;;;3.80;99.90;;;;;;5052687;28;20251;-67
2021/04/11 08:34:22;;;;;;;1999.90;999.90;;;3.90;99.90;;;;;;5053307;28;20402;-69
2021/04/11 08:37:21;;;;;;;1999.90;999.90;;;3.80;99.90;;;;;;5050449;28;20214;-68
2021/04/11 08:40:07;;;;;;;1999.90;999.90;;;3.90;99.90;;;;;;5051838;28;20402;-68
2021/04/11 08:42:51;;;;;;;1999.90;999.90;;;3.90;99.90;;;;;;5051668;28;20625;-69
2021/04/11 08:45:26;;;;;;;1999.90;999.90;;;3.90;99.90;;;;;;5051503;28;20413;-67
2021/04/11 08:48:06;;;;;;;1999.90;999.90;;;3.90;99.90;;;;;;5051617;28;20226;-68
2021/04/11 08:50:48;;;;;;;1999.90;999.90;;;3.90;99.90;;;;;;5051522;28;20187;-69
2021/04/11 08:53:33;;;;;;;1999.90;999.90;;;3.90;99.90;;;;;;5055536;28;20398;-68
2021/04/11 08:56:27;;;;;;;1999.90;999.90;;;4.00;99.90;;;;;;5055027;28;20175;-68
2021/04/11 08:58:52;;;;;;;1999.90;999.90;;;3.90;99.90;;;;;;5055463;28;20402;-68
2021/04/11 09:01:35;;;;;;;1999.90;999.90;;;3.90;99.90;;;;;;5055366;28;21119;-68
2021/04/11 09:04:18;;;;;;;1999.90;999.90;;;3.90;99.90;;;;;;5055418;28;20191;-68
2021/04/11 09:07:06;;;;;;;1999.90;999.90;;;3.90;99.90;;;;;;5055023;28;20625;-68
2021/04/11 09:09:54;;;;;;;1999.90;999.90;;;3.80;99.90;;;;;;5055135;28;20176;-68
2021/04/11 09:12:44;;;;;;;1999.90;999.90;;;3.90;99.90;;;;;;5055351;28;20178;-68
2021/04/11 09:15:17;;;;;;;1999.90;999.90;;;3.90;99.90;;;;;;5054985;28;20164;-68
2021/04/11 09:17:55;;;;;;;1999.90;999.90;;;3.80;99.90;;;;;;5055022;28;20569;-68
2021/04/11 09:20:34;;;;;;;1999.90;999.90;;;3.90;99.90;;;;;;5055215;28;20175;-68
2021/04/11 09:23:30;;;;;;;1999.90;999.90;;;4.00;99.90;;;;;;5055241;28;20541;-68
2021/04/11 09:26:21;;;;;;;1999.90;999.90;;;4.00;99.90;;;;;;5057793;28;20172;-68
2021/04/11 09:28:51;;;;;;;1999.90;999.90;;;4.00;99.90;;;;;;5054951;28;20171;-68
2021/04/11 09:31:46;;;;;;;1999.90;999.90;;;4.00;99.90;;;;;;5054879;28;20586;-68
2021/04/11 09:34:33;;;;;;;1999.90;999.90;;;4.00;99.90;;;;;;5053087;28;20253;-68
2021/04/11 09:37:23;;;;;;;1999.90;999.90;;;3.90;99.90;;;;;;5059228;28;20191;-68
2021/04/11 09:40:07;;;;;;;1999.90;999.90;;;4.00;99.90;;;;;;5054681;28;20174;-68
2021/04/11 09:43:03;;;;;;;1999.90;999.90;;;3.90;99.90;;;;;;5054681;28;20495;-68
2021/04/11 09:45:51;;;;;;;1999.90;999.90;;;4.00;99.90;;;;;;5065906;28;20433;-67
2021/04/11 09:48:23;;;;;;;1999.90;999.90;;;4.10;99.90;;;;;;5072019;28;20406;-68
2021/04/11 09:51:12;;;;;;;1999.90;999.90;;;4.10;99.90;;;;;;5071837;28;20601;-67
2021/04/11 09:54:19;;;;;;;1999.90;999.90;;;4.10;99.90;;;;;;5070298;28;20414;-67
2021/04/11 09:57:20;;;;;;;1999.90;999.90;;;4.10;99.90;;;;;;5106571;22;20486;-65
2021/04/11 09:59:59;;;;;;;1999.90;999.90;;;4.20;99.90;;;;;;4966226;28;20196;-64
2021/04/11 10:02:39;;;;;;;1999.90;999.90;;;4.20;99.90;;;;;;5033252;28;20286;-65
2021/04/11 10:05:05;;;;;;;1999.90;999.90;;;4.20;99.90;;;;;;5033424;28;20399;-65
2021/04/11 10:08:02;;;;;;;1999.90;999.90;;;4.30;99.90;;;;;;5033942;28;20431;-66
2021/04/11 10:10:47;;;;;;;1999.90;999.90;;;4.40;99.90;;;;;;5006484;28;20259;-67
2021/04/11 10:13:40;;;;;;;1999.90;999.90;;;4.40;99.90;;;;;;5033869;28;20497;-65
2021/04/11 10:16:16;;;;;;;1999.90;999.90;;;4.40;99.90;;;;;;5033570;28;20684;-66
2021/04/11 10:19:19;;;;;;;1999.90;999.90;;;4.40;99.90;;;;;;5033846;28;20806;-66
2021/04/11 10:22:15;;;;;;;1999.90;999.90;;;4.50;99.90;;;;;;5033257;28;20439;-67
2021/04/11 10:25:15;;;;;;;1999.90;999.90;;;4.50;99.90;;;;;;5033477;28;20168;-66
2021/04/11 10:28:19;;;;;;;1999.90;999.90;;;4.50;99.90;;;;;;5019315;28;20457;-65
2021/04/11 10:30:53;;;;;;;1999.90;999.90;;;4.40;99.90;;;;;;5033480;28;20406;-65
2021/04/11 10:33:37;;;;;;;1999.90;999.90;;;4.40;99.90;;;;;;5033605;28;20398;-66
2021/04/11 10:36:12;;;;;;;1999.90;999.90;;;4.40;99.90;;;;;;5033287;28;20767;-66
2021/04/11 10:38:48;;;;;;;1999.90;999.90;;;4.40;99.90;;;;;;5033310;28;20411;-66
2021/04/11 10:41:48;;;;;;;1999.90;999.90;;;4.40;99.90;;;;;;5032854;28;20196;-65
2021/04/11 10:44:37;;;;;;;1999.90;999.90;;;4.40;99.90;;;;;;5033386;28;20173;-66
2021/04/11 10:47:12;;;;;;;1999.90;999.90;;;4.30;99.90;;;;;;5033005;28;20184;-66
2021/04/11 10:49:59;;;;;;;1999.90;999.90;;;4.40;99.90;;;;;;5033086;28;20434;-65
2021/04/11 10:52:38;;;;;;;1999.90;999.90;;;4.40;99.90;;;;;;5033151;28;20855;-65
2021/04/11 10:55:12;;;;;;;1999.90;999.90;;;4.50;99.90;;;;;;5032714;28;20405;-66
2021/04/11 10:58:04;;;;;;;1999.90;999.90;;;4.50;99.90;;;;;;5031349;28;20445;-65
2021/04/11 11:01:04;;;;;;;1999.90;999.90;;;4.50;99.90;;;;;;5032060;28;20431;-67
2021/04/11 11:04:07;;;;;;;1999.90;999.90;;;4.50;99.90;;;;;;5017834;28;20435;-66
2021/04/11 11:06:51;;;;;;;1999.90;999.90;;;4.80;99.90;;;;;;5032042;28;20172;-65
2021/04/11 11:09:36;;;;;;;1999.90;999.90;;;4.70;99.90;;;;;;5032120;28;20814;-65
2021/04/11 11:12:20;;;;;;;1999.90;999.90;;;4.60;99.90;;;;;;5032204;28;20403;-66
2021/04/11 11:15:09;;;;;;;1999.90;999.90;;;4.50;99.90;;;;;;5031747;28;20453;-66
2021/04/11 11:17:53;;;;;;;1999.90;999.90;;;4.50;99.90;;;;;;5031753;28;20423;-66
2021/04/11 11:20:29;;;;;;;1999.90;999.90;;;4.50;99.90;;;;;;5031901;28;20399;-65
2021/04/11 11:23:08;;;;;;;1999.90;999.90;;;4.50;99.90;;;;;;5031554;28;20903;-67
2021/04/11 11:26:08;;;;;;;1999.90;999.90;;;4.50;99.90;;;;;;5030992;28;20399;-67
2021/04/11 11:28:53;;;;;;;1999.90;999.90;;;4.50;99.90;;;;;;5031962;28;20419;-66
2021/04/11 11:31:35;;;;;;;1999.90;999.90;;;4.50;99.90;;;;;;5031988;28;20179;-66
2021/04/11 11:34:21;;;;;;;1999.90;999.90;;;4.50;99.90;;;;;;5031649;28;20776;-65
2021/04/11 11:37:02;;;;;;;1999.90;999.90;;;4.50;99.90;;;;;;5031469;28;20434;-67
2021/04/11 11:39:46;;;;;;;1999.90;999.90;;;4.50;99.90;;;;;;5031216;28;20414;-67
2021/04/11 11:42:20;;;;;;;1999.90;999.90;;;4.60;99.90;;;;;;5031541;28;20497;-66
2021/04/11 11:45:05;;;;;;;1999.90;999.90;;;4.60;99.90;;;;;;5031301;28;20429;-70
2021/04/11 11:47:54;;;;;;;1999.90;999.90;;;4.50;99.90;;;;;;5031274;28;20823;-65
2021/04/11 11:50:30;;;;;;;1999.90;999.90;;;4.60;99.90;;;;;;5031901;28;20419;-65
2021/04/11 11:53:15;;;;;;;1999.90;999.90;;;4.80;99.90;;;;;;5031175;28;20649;-66
2021/04/11 11:55:44;;;;;;;1999.90;999.90;;;4.80;99.90;;;;;;5030918;28;20403;-65
2021/04/11 11:58:13;;;;;;;1999.90;999.90;;;4.80;99.90;;;;;;5031218;28;20914;-64
2021/04/11 12:00:46;;;;;;;1999.90;999.90;;;4.90;99.90;;;;;;5031539;28;20995;-67
2021/04/11 12:03:25;;;;;;;1999.90;999.90;;;4.90;99.90;;;;;;5030703;28;20452;-64
2021/04/11 12:06:09;;;;;;;1999.90;999.90;;;5.00;99.90;;;;;;5031228;28;20395;-64
2021/04/11 12:08:58;;;;;;;1999.90;999.90;;;5.10;99.90;;;;;;5030879;28;20956;-65
2021/04/11 12:11:51;;;;;;;1999.90;999.90;;;5.10;99.90;;;;;;5031511;28;20403;-65
2021/04/11 12:14:44;;;;;;;1999.90;999.90;;;5.30;99.90;;;;;;5030862;28;20407;-65
2021/04/11 12:17:34;;;;;;;1999.90;999.90;;;5.40;99.90;;;;;;4996023;28;20508;-65
2021/04/11 12:20:11;;;;;;;1999.90;999.90;;;5.50;99.90;;;;;;4992502;28;20418;-65
2021/04/11 12:22:50;;;;;;;1999.90;999.90;;;5.60;99.90;;;;;;5030932;28;20926;-65
2021/04/11 12:25:26;;;;;;;1999.90;999.90;;;5.80;99.90;;;;;;5030641;28;20445;-65
2021/04/11 12:27:52;;;;;;;1999.90;999.90;;;6.00;99.90;;;;;;5030983;28;20984;-65
2021/04/11 12:30:32;;;;;;;1999.90;999.90;;;5.90;99.90;;;;;;5031088;28;20419;-65
2021/04/11 12:33:06;;;;;;;1999.90;999.90;;;6.00;99.90;;;;;;5031181;28;20406;-64
2021/04/11 12:35:40;;;;;;;1999.90;999.90;;;6.10;99.90;;;;;;5030902;28;20452;-67
2021/04/11 12:38:12;;;;;;;1999.90;999.90;;;6.20;99.90;;;;;;5031476;28;21075;-66
2021/04/11 12:41:01;;;;;;;1999.90;999.90;;;6.20;99.90;;;;;;5031018;28;20921;-65
2021/04/11 12:43:36;;;;;;;1999.90;999.90;;;6.10;99.90;;;;;;5030980;28;20391;-66
2021/04/11 12:46:25;;;;;;;1999.90;999.90;;;5.70;99.90;;;;;;5030361;28;20403;-65
2021/04/11 12:49:09;;;;;;;1999.90;999.90;;;5.50;99.90;;;;;;5031046;28;20557;-65
2021/04/11 12:51:52;;;;;;;1999.90;999.90;;;5.50;99.90;;;;;;5031057;28;20932;-65
2021/04/11 12:54:34;;;;;;;1999.90;999.90;;;5.40;99.90;;;;;;5030217;28;20410;-65
2021/04/11 12:57:23;;;;;;;1999.90;999.90;;;5.30;99.90;;;;;;5030499;28;20944;-64
2021/04/11 13:00:05;;;;;;;1999.90;999.90;;;5.40;99.90;;;;;;5031039;28;20422;-65